Time,TemperatureF,DewpointF,PressureIn,WindDirection,WindDirectionDegrees,WindSpeedMPH,WindSpeedGustMPH,Humidity,HourlyPrecipIn,Conditions,Clouds,dailyrainin,SoftwareType,DateUTC
2013-01-31 00:14:00,53.3,51.6,29.52,SSW,212,6.0,15.0,94,0.00,-RA,,0.00,WeatherDisplay:10.37,2013-01-31 05:14:00,
2013-01-31 00:30:00,52.4,50.7,29.51,SW,220,6.0,17.0,94,0.00,-RA,,0.00,WeatherDisplay:10.37,2013-01-31 05:30:00,
2013-01-31 00:44:00,52.0,50.3,29.52,SW,218,6.0,21.0,94,0.00,-RA,,0.00,WeatherDisplay:10.37,2013-01-31 05:44:00,
2013-01-31 01:00:00,51.2,48.9,29.52,SSW,212,3.0,18.0,92,0.01,-RA,,0.01,WeatherDisplay:10.37,2013-01-31 06:00:00,
2013-01-31 01:15:00,50.4,48.4,29.52,SSW,213,7.0,15.0,93,0.00,-RA,,0.01,WeatherDisplay:10.37,2013-01-31 06:15:00,
2013-01-31 01:30:00,49.6,47.7,29.53,SSW,207,7.0,17.0,93,0.00,-RA,,0.01,WeatherDisplay:10.37,2013-01-31 06:30:00,
2013-01-31 01:44:00,48.7,46.2,29.54,SW,231,7.0,15.0,91,0.00,-RA,,0.01,WeatherDisplay:10.37,2013-01-31 06:44:00,
2013-01-31 02:00:00,48.0,44.6,29.54,SW,224,6.0,20.0,88,0.00,BKN,,0.01,WeatherDisplay:10.37,2013-01-31 07:00:00,
2013-01-31 02:14:00,47.5,44.1,29.54,SW,230,8.0,21.0,88,0.00,BKN,,0.01,WeatherDisplay:10.37,2013-01-31 07:14:00,
2013-01-31 02:30:00,47.2,44.1,29.56,SW,233,3.0,15.0,89,0.00,BKN,,0.01,WeatherDisplay:10.37,2013-01-31 07:30:00,
2013-01-31 02:44:00,47.1,44.0,29.57,WSW,240,3.0,28.0,89,0.00,BKN,,0.01,WeatherDisplay:10.37,2013-01-31 07:44:00,
2013-01-31 03:00:00,46.6,43.9,29.58,WSW,257,2.0,16.0,90,0.01,-RA,,0.02,WeatherDisplay:10.37,2013-01-31 08:00:00,
2013-01-31 03:14:00,45.8,43.4,29.59,WSW,238,5.0,16.0,91,0.00,-RA,,0.02,WeatherDisplay:10.37,2013-01-31 08:14:00,
2013-01-31 03:30:00,45.2,41.9,29.60,WSW,252,3.0,12.0,88,0.00,-RA,,0.02,WeatherDisplay:10.37,2013-01-31 08:30:00,
2013-01-31 03:44:00,44.6,39.8,29.60,WSW,243,5.0,15.0,83,0.00,-RA,,0.02,WeatherDisplay:10.37,2013-01-31 08:44:00,
2013-01-31 04:00:00,44.2,39.3,29.62,WSW,254,2.0,14.0,83,0.00,-RA,,0.02,WeatherDisplay:10.37,2013-01-31 09:00:00,
2013-01-31 04:14:00,43.5,38.4,29.63,WSW,257,5.0,8.0,82,0.01,-RA,,0.03,WeatherDisplay:10.37,2013-01-31 09:14:00,
2013-01-31 04:30:00,43.6,37.8,29.65,West,265,3.0,18.0,80,0.00,OVC,,0.03,WeatherDisplay:10.37,2013-01-31 09:30:00,
2013-01-31 04:44:00,43.3,35.6,29.67,WNW,283,5.0,17.0,74,0.00,OVC,,0.03,WeatherDisplay:10.37,2013-01-31 09:44:00,
2013-01-31 05:00:00,42.5,32.7,29.67,West,274,8.0,20.0,68,0.00,OVC,,0.03,WeatherDisplay:10.37,2013-01-31 10:00:00,
2013-01-31 05:14:00,42.0,31.5,29.69,West,260,7.0,27.0,66,0.00,OVC,,0.03,WeatherDisplay:10.37,2013-01-31 10:14:00,
2013-01-31 05:30:00,41.6,29.1,29.70,West,276,6.0,21.0,61,0.00,CLR,,0.03,WeatherDisplay:10.37,2013-01-31 10:30:00,
2013-01-31 05:44:00,41.3,28.4,29.72,West,277,10.0,18.0,60,0.00,CLR,,0.03,WeatherDisplay:10.37,2013-01-31 10:44:00,
2013-01-31 06:00:00,40.4,26.8,29.73,West,277,8.0,22.0,58,0.00,CLR,,0.03,WeatherDisplay:10.37,2013-01-31 11:00:00,
2013-01-31 06:14:00,39.4,26.7,29.75,West,267,7.0,18.0,60,0.00,CLR,,0.03,WeatherDisplay:10.37,2013-01-31 11:14:00,
2013-01-31 06:30:00,38.9,25.4,29.77,West,260,8.0,22.0,58,0.00,FEW,,0.03,WeatherDisplay:10.37,2013-01-31 11:30:00,
2013-01-31 06:45:00,38.2,25.6,29.78,West,270,2.0,18.0,60,0.00,FEW,,0.03,WeatherDisplay:10.37,2013-01-31 11:45:00,
2013-01-31 07:00:00,37.8,25.1,29.79,West,264,2.0,20.0,60,0.00,FEW,,0.03,WeatherDisplay:10.37,2013-01-31 12:00:00,
2013-01-31 07:14:00,37.4,24.8,29.80,West,273,3.0,14.0,60,0.00,FEW,,0.03,WeatherDisplay:10.37,2013-01-31 12:14:00,
2013-01-31 07:30:00,36.9,24.3,29.81,West,277,2.0,14.0,60,0.00,CLR,,0.03,WeatherDisplay:10.37,2013-01-31 12:30:00,
2013-01-31 07:44:00,36.6,23.6,29.83,West,263,7.0,18.0,59,0.00,CLR,,0.03,WeatherDisplay:10.37,2013-01-31 12:44:00,
2013-01-31 08:00:00,36.5,23.6,29.84,West,264,5.0,14.0,59,0.00,CLR,,0.03,WeatherDisplay:10.37,2013-01-31 13:00:00,
2013-01-31 08:14:00,36.6,23.6,29.85,West,273,7.0,13.0,59,0.00,CLR,,0.03,WeatherDisplay:10.37,2013-01-31 13:14:00,
2013-01-31 08:30:00,36.8,23.4,29.86,WSW,258,8.0,18.0,58,0.00,CLR,,0.03,WeatherDisplay:10.37,2013-01-31 13:30:00,
2013-01-31 08:44:00,37.2,23.4,29.88,West,281,5.0,15.0,57,0.00,CLR,,0.03,WeatherDisplay:10.37,2013-01-31 13:44:00,
2013-01-31 09:00:00,37.6,22.5,29.88,WNW,285,8.0,20.0,54,0.00,CLR,,0.03,WeatherDisplay:10.37,2013-01-31 14:00:00,
2013-01-31 09:15:00,38.0,22.8,29.89,WNW,295,3.0,22.0,54,0.00,CLR,,0.03,WeatherDisplay:10.37,2013-01-31 14:15:00,
2013-01-31 09:30:00,38.5,23.7,29.90,West,278,5.0,21.0,55,0.00,CLR,,0.03,WeatherDisplay:10.37,2013-01-31 14:30:00,
2013-01-31 09:45:00,39.2,23.9,29.90,West,269,5.0,20.0,54,0.00,CLR,,0.03,WeatherDisplay:10.37,2013-01-31 14:45:00,
2013-01-31 10:00:00,39.5,22.8,29.90,WNW,291,7.0,25.0,51,0.00,CLR,,0.03,WeatherDisplay:10.37,2013-01-31 15:00:00,
2013-01-31 10:14:00,40.1,24.3,29.91,West,272,6.0,20.0,53,0.00,CLR,,0.03,WeatherDisplay:10.37,2013-01-31 15:14:00,
2013-01-31 10:30:00,40.5,24.2,29.92,West,267,7.0,20.0,52,0.00,FEW,,0.03,WeatherDisplay:10.37,2013-01-31 15:30:00,
2013-01-31 10:44:00,40.5,23.3,29.92,West,268,10.0,21.0,50,0.00,FEW,,0.03,WeatherDisplay:10.37,2013-01-31 15:44:00,
2013-01-31 11:00:00,40.6,22.4,29.93,West,279,5.0,18.0,48,0.00,FEW,,0.03,WeatherDisplay:10.37,2013-01-31 16:00:00,
2013-01-31 11:15:00,41.1,22.4,29.93,West,271,7.0,21.0,47,0.00,FEW,,0.03,WeatherDisplay:10.37,2013-01-31 16:15:00,
2013-01-31 11:30:00,41.1,22.9,29.93,WNW,288,5.0,18.0,48,0.00,SCT,,0.03,WeatherDisplay:10.37,2013-01-31 16:30:00,
2013-01-31 11:45:00,41.1,19.7,29.93,West,281,7.0,18.0,42,0.00,SCT,,0.03,WeatherDisplay:10.37,2013-01-31 16:45:00,
2013-01-31 12:00:00,41.4,20.5,29.93,West,281,6.0,25.0,43,0.00,SCT,,0.03,WeatherDisplay:10.37,2013-01-31 17:00:00,
2013-01-31 12:15:00,41.9,21.5,29.92,West,260,3.0,17.0,44,0.00,SCT,,0.03,WeatherDisplay:10.37,2013-01-31 17:15:00,
2013-01-31 12:30:00,43.0,22.6,29.92,West,261,7.0,24.0,44,0.00,SCT,,0.03,WeatherDisplay:10.37,2013-01-31 17:30:00,
2013-01-31 12:44:00,43.4,22.9,29.91,WSW,239,8.0,25.0,44,0.00,SCT,,0.03,WeatherDisplay:10.37,2013-01-31 17:44:00,
2013-01-31 13:00:00,43.4,22.9,29.91,West,269,7.0,20.0,44,0.00,SCT,,0.03,WeatherDisplay:10.37,2013-01-31 18:00:00,
2013-01-31 13:14:00,43.8,22.7,29.90,WNW,287,7.0,17.0,43,0.00,SCT,,0.03,WeatherDisplay:10.37,2013-01-31 18:14:00,
2013-01-31 13:30:00,43.4,22.9,29.91,West,262,7.0,17.0,44,0.00,SCT,,0.03,WeatherDisplay:10.37,2013-01-31 18:30:00,
2013-01-31 13:45:00,44.0,21.8,29.91,West,270,8.0,24.0,41,0.00,SCT,,0.03,WeatherDisplay:10.37,2013-01-31 18:45:00,
2013-01-31 14:00:00,44.1,21.9,29.92,WNW,289,9.0,21.0,41,0.00,SCT,,0.03,WeatherDisplay:10.37,2013-01-31 19:00:00,
2013-01-31 14:14:00,42.7,21.7,29.92,WNW,301,2.0,23.0,43,0.00,SCT,,0.03,WeatherDisplay:10.37,2013-01-31 19:14:00,
2013-01-31 14:30:00,43.6,21.4,29.92,NW,305,8.0,20.0,41,0.00,SCT,,0.03,WeatherDisplay:10.37,2013-01-31 19:30:00,
2013-01-31 14:45:00,43.8,21.0,29.93,WNW,289,8.0,20.0,40,0.00,SCT,,0.03,WeatherDisplay:10.37,2013-01-31 19:45:00,
2013-01-31 15:00:00,43.4,21.2,29.94,West,272,6.0,17.0,41,0.00,SCT,,0.03,WeatherDisplay:10.37,2013-01-31 20:00:00,
2013-01-31 15:14:00,42.1,19.5,29.95,WNW,286,7.0,21.0,40,0.00,SCT,,0.03,WeatherDisplay:10.37,2013-01-31 20:14:00,
2013-01-31 15:30:00,43.1,19.8,29.95,WNW,297,8.0,17.0,39,0.00,FEW,,0.03,WeatherDisplay:10.37,2013-01-31 20:30:00,
2013-01-31 15:44:00,43.2,20.5,29.96,WNW,294,6.0,21.0,40,0.00,FEW,,0.03,WeatherDisplay:10.37,2013-01-31 20:44:00,
2013-01-31 16:00:00,42.7,20.0,29.97,WNW,288,6.0,17.0,40,0.00,FEW,,0.03,WeatherDisplay:10.37,2013-01-31 21:00:00,
2013-01-31 16:14:00,42.2,20.7,29.97,West,279,6.0,25.0,42,0.00,FEW,,0.03,WeatherDisplay:10.37,2013-01-31 21:14:00,
2013-01-31 16:30:00,42.0,21.1,29.98,West,278,5.0,17.0,43,0.00,CLR,,0.03,WeatherDisplay:10.37,2013-01-31 21:30:00,
2013-01-31 16:45:00,41.7,20.3,29.99,WNW,296,7.0,16.0,42,0.00,CLR,,0.03,WeatherDisplay:10.37,2013-01-31 21:45:00,
2013-01-31 17:00:00,41.3,21.0,29.98,WNW,295,3.0,20.0,44,0.00,CLR,,0.03,WeatherDisplay:10.37,2013-01-31 22:00:00,
2013-01-31 17:14:00,40.8,20.5,29.99,West,279,6.0,13.0,44,0.00,CLR,,0.03,WeatherDisplay:10.37,2013-01-31 22:14:00,
2013-01-31 17:30:00,40.2,19.5,29.99,WNW,282,5.0,20.0,43,0.00,CLR,,0.03,WeatherDisplay:10.37,2013-01-31 22:30:00,
2013-01-31 17:45:00,39.7,19.5,30.00,WNW,287,3.0,12.0,44,0.00,CLR,,0.03,WeatherDisplay:10.37,2013-01-31 22:45:00,
2013-01-31 18:00:00,39.0,19.4,30.00,West,271,6.0,13.0,45,0.00,CLR,,0.03,WeatherDisplay:10.37,2013-01-31 23:00:00,
2013-01-31 18:15:00,38.7,18.6,30.00,WSW,258,3.0,16.0,44,0.00,CLR,,0.03,WeatherDisplay:10.37,2013-01-31 23:15:00,
2013-01-31 18:30:00,38.3,18.8,30.00,WNW,295,1.0,9.0,45,0.00,CLR,,0.03,WeatherDisplay:10.37,2013-01-31 23:30:00,
2013-01-31 18:45:00,37.6,18.7,30.01,WNW,289,1.0,7.0,46,0.00,CLR,,0.03,WeatherDisplay:10.37,2013-01-31 23:45:00,
2013-01-31 19:00:00,36.8,18.9,30.01,WNW,289,0.0,2.0,48,0.00,CLR,,0.03,WeatherDisplay:10.37,2013-02-01 00:00:00,
2013-01-31 19:15:00,35.8,18.5,30.01,WNW,289,0.0,2.0,49,0.00,CLR,,0.03,WeatherDisplay:10.37,2013-02-01 00:15:00,
2013-01-31 19:30:00,34.8,19.0,30.01,WNW,289,0.0,1.0,52,0.00,CLR,,0.03,WeatherDisplay:10.37,2013-02-01 00:30:00,
2013-01-31 19:45:00,33.8,18.9,30.02,WNW,289,0.0,1.0,54,0.00,CLR,,0.03,WeatherDisplay:10.37,2013-02-01 00:45:00,
2013-01-31 20:00:00,33.0,19.4,30.02,WNW,289,0.0,0.0,57,0.00,CLR,,0.03,WeatherDisplay:10.37,2013-02-01 01:00:00,
2013-01-31 20:15:00,32.0,20.1,30.01,WNW,287,0.0,3.0,61,0.00,CLR,,0.03,WeatherDisplay:10.37,2013-02-01 01:15:00,
2013-01-31 20:30:00,31.4,18.7,30.02,WNW,285,0.0,2.0,59,0.00,CLR,,0.03,WeatherDisplay:10.37,2013-02-01 01:30:00,
2013-01-31 20:45:00,31.3,19.4,30.01,WNW,285,0.0,2.0,61,0.00,CLR,,0.03,WeatherDisplay:10.37,2013-02-01 01:45:00,
2013-01-31 21:00:00,31.0,19.5,30.01,WNW,285,0.0,1.0,62,0.00,CLR,,0.03,WeatherDisplay:10.37,2013-02-01 02:00:00,
2013-01-31 21:15:00,30.5,19.4,30.01,WNW,285,0.0,1.0,63,0.00,CLR,,0.03,WeatherDisplay:10.37,2013-02-01 02:15:00,
2013-01-31 21:30:00,30.2,19.8,30.01,WNW,285,0.0,2.0,65,0.00,CLR,,0.03,WeatherDisplay:10.37,2013-02-01 02:30:00,
2013-01-31 21:45:00,29.9,19.6,30.01,WNW,284,0.0,1.0,65,0.00,CLR,,0.03,WeatherDisplay:10.37,2013-02-01 02:45:00,
2013-01-31 22:00:00,29.8,19.8,30.01,WNW,284,0.0,1.0,66,0.00,CLR,,0.03,WeatherDisplay:10.37,2013-02-01 03:00:00,
2013-01-31 22:15:00,29.8,19.5,30.01,WNW,284,0.0,3.0,65,0.00,CLR,,0.03,WeatherDisplay:10.37,2013-02-01 03:15:00,
2013-01-31 22:30:00,30.1,19.4,30.02,WNW,284,0.0,2.0,64,0.00,CLR,,0.03,WeatherDisplay:10.37,2013-02-01 03:30:00,
2013-01-31 22:45:00,30.4,19.7,30.01,WNW,284,0.0,2.0,64,0.00,CLR,,0.03,WeatherDisplay:10.37,2013-02-01 03:45:00,
2013-01-31 23:00:00,30.6,19.9,30.02,WNW,283,0.0,4.0,64,0.00,CLR,,0.03,WeatherDisplay:10.37,2013-02-01 04:00:00,
2013-01-31 23:15:00,30.8,19.7,30.01,WNW,283,0.0,2.0,63,0.00,CLR,,0.03,WeatherDisplay:10.37,2013-02-01 04:15:00,
2013-01-31 23:30:00,30.5,19.8,30.01,WNW,283,0.0,2.0,64,0.00,CLR,,0.03,WeatherDisplay:10.37,2013-02-01 04:30:00,
2013-01-31 23:45:00,30.3,19.6,30.00,WNW,283,0.0,2.0,64,0.00,CLR,,0.03,WeatherDisplay:10.37,2013-02-01 04:45:00,